x

Luke Offshore Test Platform - 64 Nm South Of Dauphin Island, Al (42040) Wave Buoy

9:50pm - Wed 30th Jul 2014 All times are CDT. -5 hours from GMT.

  • Sig Wave height 1.0ft
  • Average Period 4s
  • Wind
    7mph, 9mph gusts
  • Sea Temp 86°f
  • Air Temp 81°f
  • Sea Pressure 1016.9mb
  • Luke Offshore Test Platform - 64 Nm South Of Dauphin Island, Al
  • Luke Offshore Test Platform - 64 Nm South Of Dauphin Island, Al

More Historic Weather Station data

Upgrade to MSW Pro to gain access to the past 30 days of data for over 8000 Wavebouys and Weather Stations around the globe.

Join Pro

Comparision Forecast

View Surf forecast
   
Wed 07/30 9:50pm 1ft 4s 7 9 mph 1016.9mb 86f 81f
8:50pm 1ft 4s 4 7 mph 1016.4mb 86f 81f
7:50pm 1ft 4s 4 9 mph 1016mb 87f 81f
6:50pm 1ft 4s 7 9 mph 1015.7mb 88f 81f
5:50pm 1ft 4s 7 9 mph 1015.6mb 88f 81f
4:50pm 1ft 4s 9 11 mph 1015.9mb 88f 81f
3:50pm 1.3ft 4s 7 9 mph 1016.1mb 88f 81f
2:50pm 1.3ft 4s 4 7 mph 1016.5mb 88f 81f
1:50pm 1.6ft 4s 4 7 mph 1016.9mb 87f 81f
12:50pm 1.6ft 4s 4 7 mph 1017.3mb 87f 81f
11:50am 2ft 4s 9 11 mph 1017.5mb 86f 81f
10:50am 2.5ft 4s 11 13 mph 1017.7mb 86f 81f
9:50am 2.5ft 4s 11 13 mph 1017.4mb 85f 81f
8:50am 2.5ft 4s 11 13 mph 1017.3mb 85f 81f
7:50am 3.5ft 4s 16 18 mph 1017mb 85f 81f
6:50am 1ft 3s 18 20 mph 1016.6mb 85f 81f
5:50am 0.7ft 3s 9 20 mph 1016mb 85f 83f
4:50am 0.7ft 3s 4 7 mph 1015.7mb 85f 83f
3:50am 0.7ft 4s 4 7 mph 1015.9mb 85f 83f
2:50am 0.7ft 4s 7 9 mph 1015.9mb 85f 83f
1:50am 0.7ft 4s 7 9 mph 1016.3mb 85f 83f
12:50am 1ft 4s 9
mph
1016.6mb 86f 83f
Tue 07/29 11:50pm 1ft 4s 9 11 mph 1016.9mb 86f 83f
10:50pm 1ft 4s 9 11 mph 1016.9mb 86f 83f
9:50pm 1ft 4s 9 11 mph 1016.3mb 86f 83f
8:50pm 1.3ft 4s 11 13 mph 1015.8mb 86f 83f
7:50pm 1.3ft 4s 9 11 mph 1015.7mb 87f 83f
6:50pm 1.3ft 4s 9 13 mph 1015.7mb 87f 83f
5:50pm 1.3ft 4s 13 16 mph 1015.7mb 87f 83f
4:50pm 1.6ft 4s 13 16 mph 1015.7mb 87f 82f
3:50pm 1.6ft 4s 13 18 mph 1015.9mb 87f 82f
2:50pm 1.6ft 4s 13 16 mph 1016.2mb 87f 82f
1:50pm 1.6ft 4s 13 16 mph 1016.6mb 87f 82f
12:50pm 2ft 4s 7 9 mph 1017.2mb 87f 82f
11:50am 2.5ft 4s 4 7 mph 1017.8mb 86f 82f
10:50am 2.5ft 4s 11 16 mph 1017.7mb 86f 82f
9:50am 2.5ft 4s 16 18 mph 1017.2mb 86f 82f
8:50am 2.5ft 4s 16 20 mph 1016.8mb 85f 83f
7:50am 2.5ft 4s 13 16 mph 1016.3mb 85f 83f
6:50am 2.5ft 4s 16 20 mph 1015.5mb 85f 83f
5:50am 2.5ft 3s 13 16 mph 1014.6mb 86f 83f
4:50am 2.5ft 3s 16 18 mph 1014.2mb 86f 84f
3:50am 3ft 3s 11 13 mph 1014.1mb 86f 82f
2:50am 3ft 3s 20 25 mph 1014.4mb 86f 85f
1:50am 3.5ft 4s 20 22 mph 1014.9mb 86f 86f
12:50am 3.5ft 4s 18 22 mph 1015.3mb 86f 86f
Mon 07/28 11:50pm 3.5ft 4s 20 22 mph 1015.7mb 86f 85f
10:50pm 3ft 4s 18 22 mph 1016.2mb 86f 85f
9:50pm 3ft 4s 18 20 mph 1015.9mb 86f 85f
8:50pm 3ft 4s 18 20 mph 1015.3mb 86f 85f
7:50pm 3ft 4s 18 20 mph 1015.2mb 86f 85f
6:50pm 2.5ft 4s 20 22 mph 1014.9mb 86f 86f
5:50pm 2.5ft 4s 18 22 mph 1015.6mb 87f 86f
4:50pm 2.5ft 4s 16 20 mph 1016.1mb 86f 86f
3:50pm 2.5ft 4s 16 20 mph 1016.5mb 86f 85f
2:50pm 2.5ft 4s 18 20 mph 1017.4mb 86f 85f
1:50pm 2.5ft 4s 16 20 mph 1018mb 86f 85f
12:50pm 3ft 4s 18 20 mph 1018.5mb 86f 84f
10:50am 3.5ft 3s 18 22 mph 1019.1mb 86f 84f
9:50am 3.5ft 3s 20 25 mph 1019.1mb 86f 84f
8:50am 3.5ft 3s 18 22 mph 1019mb 86f 82f
7:50am 3ft 3s 18 20 mph 1018.7mb 85f 84f
6:50am 3ft 3s 20 22 mph 1018.3mb 85f 85f
5:50am 3ft 3s 18 22 mph 1017.6mb 85f 84f
4:50am 3.5ft 3s 18 22 mph 1017.3mb 85f 85f
3:50am 3ft 3s 20 22 mph 1016.8mb 85f 85f
2:50am 3.5ft 3s 22 25 mph 1017mb 85f 85f
1:50am 3ft 3s 20 22 mph 1017.2mb 85f 85f
12:50am 3ft 3s 20 22 mph 1017.8mb 85f 85f
Sun 07/27 11:50pm 2.5ft 3s 18 20 mph 1018.3mb 86f 85f
10:50pm 2.5ft 3s 18 20 mph 1018.4mb 86f 85f
9:50pm 2ft 3s 18 20 mph 1018.2mb 86f 86f
8:50pm 1.3ft 3s 18 20 mph 1017.5mb 87f 86f
7:50pm 1ft 3s 16 18 mph 1017.4mb 87f 86f
6:50pm 1ft 4s 11 13 mph 1017.9mb 88f 85f
5:50pm 1ft 4s 9 11 mph 1017.8mb 88f 85f
4:50pm 1ft 3s 9
mph
1018.1mb 89f 85f
3:50pm 1ft 3s 9 11 mph 1018.5mb 88f 85f
2:50pm 1.3ft 3s 9 11 mph 1018.9mb 88f 85f
1:50pm 1.3ft 3s 11 13 mph 1019.4mb 88f 84f
12:50pm 1.3ft 3s 9 11 mph 1019.8mb 88f 83f
11:50am 1.3ft 3s 9 11 mph 1020.1mb 87f 84f
10:50am 1.3ft 3s 13 16 mph 1020.1mb 86f 84f
9:50am 1.3ft 3s 16 18 mph 1019.8mb 86f 84f
8:50am 1.3ft 3s 13 16 mph 1019.5mb 85f 84f
7:50am 1.3ft 3s 13 16 mph 1019.1mb 85f 84f
6:50am 1.3ft 3s 13 18 mph 1018.6mb 85f 84f
5:50am 1.6ft 3s 13 16 mph 1018.1mb 85f 84f
4:50am 1.6ft 3s 13 16 mph 1018mb 85f 84f
3:50am 1.6ft 3s 13 16 mph 1017.9mb 86f 84f